Latest Weather Observations for Maryborough

IDQ60801

Issued at 8:02 pm EST Tuesday 28 July 2015 (issued every 30 minutes, with the page automatically refreshed every 10 minutes)

About weather observations | Map of weather stations | Latest weather observations for QLD | Other Formats
Station Details ID: 040126 Name: MARYBOROUGH Lat: -25.52 Lon: 152.72 Height: 10.28 m
Data from the previous 72 hours. | See also: Recent months at Maryborough
Date/Time
EST
Temp
°C
App
Temp
°C
Dew
Point
Rel
Hum
%
Delta-T
°C
Wind Press
QNH
hPa
Press
MSL
hPa
Rain
since 9 am
mm
Dir
 
Spd
km/h
Gust
km/h
Spd
kts
Gust
kts
28/08:00pm 14.2 13.2 11.0 81 1.7 S 7 9 4 5 1029.3 - 0.0
28/07:30pm 14.3 13.2 10.7 79 1.9 S 7 11 4 6 1029.1 - 0.0
28/07:00pm 14.8 13.4 10.8 77 2.1 S 9 11 5 6 1028.8 - 0.0
28/06:30pm 15.4 14.0 10.8 74 2.4 SSE 9 13 5 7 1028.3 - 0.0
28/06:00pm 16.1 13.9 10.8 71 2.8 SE 13 20 7 11 1027.9 1027.9 0.0
28/05:30pm 17.2 13.7 11.0 67 3.3 SE 20 30 11 16 1027.5 - 0.0
28/05:00pm 17.9 14.4 10.8 63 3.8 SE 20 30 11 16 1027.3 - 0.0
28/04:30pm 18.5 13.6 10.1 58 4.5 SE 26 35 14 19 1027.1 - 0.0
28/04:00pm 19.2 14.4 10.2 56 4.8 SE 26 43 14 23 1026.8 - 0.0
28/03:30pm 20.0 15.8 11.0 56 4.9 SE 24 33 13 18 1026.5 - 0.0
28/03:00pm 20.3 15.6 10.7 54 5.2 SE 26 35 14 19 1026.5 1026.5 0.0
28/02:30pm 20.1 14.5 10.2 53 5.3 ESE 30 39 16 21 1026.5 - 0.0
28/02:00pm 20.2 15.2 9.7 51 5.6 SE 26 37 14 20 1026.6 - 0.0
28/01:30pm 21.7 17.1 11.1 51 5.9 SE 26 39 14 21 1026.7 - 0.0
28/01:00pm 21.5 17.5 11.8 54 5.4 SE 24 33 13 18 1027.0 - 0.0
28/12:30pm 20.4 16.0 11.6 57 4.9 SE 26 33 14 18 1027.2 - 0.0
28/12:00pm 20.2 15.7 11.4 57 4.8 SE 26 37 14 20 1027.5 1027.5 0.0
28/11:30am 20.4 16.7 11.6 57 4.9 SSE 22 33 12 18 1027.9 - 0.0
28/11:00am 20.8 17.8 12.0 57 4.9 S 19 28 10 15 1028.2 - 0.0
28/10:30am 18.7 15.1 9.8 56 4.7 S 19 26 10 14 1028.6 - 0.0
28/10:00am 17.1 13.2 9.5 61 3.9 S 20 32 11 17 1028.7 - 0.0
28/09:30am 16.0 12.3 8.0 59 4.0 S 17 24 9 13 1028.8 - 0.0
28/09:00am 14.5 10.8 6.3 58 3.9 SSW 15 20 8 11 1028.5 1028.5 0.0
28/08:30am 13.1 9.5 4.8 57 3.8 SW 13 17 7 9 1028.4 - 0.0
28/08:00am 12.3 8.1 4.0 57 3.7 SW 15 19 8 10 1028.1 - 0.0
28/07:30am 12.1 8.3 4.1 58 3.6 SW 13 17 7 9 1028.0 - 0.0
28/07:00am 11.2 7.3 3.5 59 3.4 SW 13 17 7 9 1027.7 - 0.0
28/06:30am 11.0 7.1 3.3 59 3.4 SW 13 19 7 10 1027.5 - 0.0
28/06:00am 11.4 6.7 3.2 57 3.6 SW 17 22 9 12 1027.3 1027.3 0.0
28/05:30am 11.4 7.1 3.2 57 3.6 SSW 15 20 8 11 1026.6 - 0.0
28/05:00am 11.8 7.4 2.8 54 3.9 SW 15 19 8 10 1026.5 - 0.0
28/04:30am 12.0 8.0 3.0 54 3.9 WSW 13 19 7 10 1026.2 - 0.0
28/04:00am 12.3 7.6 3.3 54 4.0 SW 17 22 9 12 1026.1 - 0.0
28/03:30am 12.5 8.2 3.5 54 4.0 SW 15 20 8 11 1026.1 - 0.0
28/03:00am 12.7 8.4 3.1 52 4.2 SW 15 22 8 12 1026.2 1026.2 0.0
28/02:30am 12.9 7.6 3.0 51 4.4 SW 20 28 11 15 1025.7 - 0.0
28/02:00am 13.0 7.9 3.1 51 4.4 SW 19 24 10 13 1025.9 - 0.0
28/01:30am 13.7 8.4 3.2 49 4.7 SW 20 32 11 17 1026.0 - 0.0
28/01:00am 14.2 9.1 3.9 50 4.7 SSW 20 30 11 16 1026.0 - 0.0
28/12:30am 14.8 10.0 4.5 50 4.8 SW 19 24 10 13 1026.0 - 0.0
28/12:00am 15.3 10.9 4.7 49 4.9 SW 17 26 9 14 1025.9 1025.9 0.0
 
Date/Time
EST
Temp
°C
App
Temp
°C
Dew
Point
Rel
Hum
%
Delta-T
°C
Wind Press
QNH
hPa
Press
MSL
hPa
Rain
since 9 am
mm
Dir
 
Spd
km/h
Gust
km/h
Spd
kts
Gust
kts
27/11:30pm 15.5 10.8 5.1 50 4.9 SW 19 24 10 13 1026.0 - 0.0
27/11:00pm 16.1 11.9 5.7 50 5.0 SW 17 22 9 12 1026.0 - 0.0
27/10:30pm 16.3 13.0 6.2 51 4.9 SW 13 17 7 9 1025.9 - 0.0
27/10:00pm 16.6 13.3 6.4 51 5.0 SW 13 20 7 11 1025.9 - 0.0
27/09:30pm 16.2 13.6 7.7 57 4.3 S 11 15 6 8 1025.6 - 0.0
27/09:00pm 14.6 14.1 10.6 77 2.1 SSE 4 7 2 4 1025.5 1025.5 0.0
27/08:30pm 14.5 14.8 10.9 79 1.9 CALM 0 0 0 0 1025.3 - 0.0
27/08:00pm 15.4 14.9 10.6 73 2.5 SSE 4 7 2 4 1024.9 - 0.0
27/07:30pm 16.2 15.1 10.1 67 3.2 SSE 6 7 3 4 1024.6 - 0.0
27/07:00pm 17.1 15.8 9.8 62 3.8 SSE 7 9 4 5 1024.3 - 0.0
27/06:30pm 17.5 16.0 9.2 58 4.3 SSE 7 9 4 5 1023.7 - 0.0
27/06:00pm 19.5 17.6 9.1 51 5.4 SE 9 11 5 6 1023.1 1023.1 0.0
27/05:30pm 20.6 17.9 5.4 37 7.5 SSW 9 13 5 7 1022.6 - 0.0
27/05:00pm 21.6 19.0 5.9 36 7.9 SSW 9 11 5 6 1022.0 - 0.0
27/04:30pm 22.6 20.1 6.4 35 8.3 S 9 11 5 6 1021.5 - 0.0
27/04:00pm 23.8 20.2 5.2 30 9.3 SSW 13 19 7 10 1021.2 - 0.0
27/03:30pm 24.2 19.7 4.0 27 10.0 SSW 17 22 9 12 1020.9 - 0.0
27/03:00pm 24.7 20.7 5.0 28 9.9 SSW 15 22 8 12 1020.9 1020.9 0.0
27/02:30pm 25.6 21.2 4.7 26 10.5 WSW 17 24 9 13 1020.9 - 0.0
27/02:00pm 24.6 19.8 4.9 28 9.9 SW 19 24 10 13 1021.2 - 0.0
27/01:30pm 24.8 20.5 5.1 28 9.9 SW 17 26 9 14 1021.6 - 0.0
27/01:00pm 24.1 19.9 5.5 30 9.4 SSW 17 32 9 17 1021.9 - 0.0
27/12:30pm 24.2 19.5 6.0 31 9.3 SW 20 26 11 14 1022.4 - 0.0
27/12:00pm 23.5 19.0 6.3 33 8.8 SSW 19 26 10 14 1023.0 1023.0 0.0
27/11:30am 22.5 18.3 5.9 34 8.4 WSW 17 26 9 14 1023.3 - 0.0
27/11:00am 22.1 17.9 5.9 35 8.2 WSW 17 22 9 12 1023.8 - 0.0
27/10:30am 21.8 17.5 6.9 38 7.6 SW 19 28 10 15 1024.3 - 0.0
27/10:00am 21.3 18.3 9.2 46 6.4 SSW 15 22 8 12 1024.7 - 0.0
27/09:30am 20.2 17.3 9.5 50 5.7 SSW 15 20 8 11 1024.8 - 0.0
27/09:00am 19.8 17.2 10.8 56 4.9 SSW 15 19 8 10 1024.8 1024.8 0.6
27/08:30am 18.6 16.4 10.7 60 4.3 SSW 13 17 7 9 1024.8 - 0.6
27/08:00am 18.7 16.7 11.5 63 3.9 SSW 13 17 7 9 1024.3 - 0.6
27/07:30am 17.8 15.7 12.3 70 3.0 SSW 15 17 8 9 1024.0 - 0.6
27/07:00am 17.6 16.4 14.1 80 2.0 SW 13 17 7 9 1023.6 - 0.6
27/06:30am 17.8 17.0 15.2 85 1.5 SSW 13 17 7 9 1023.2 - 0.6
27/06:00am 17.8 18.4 16.7 93 0.7 SSW 9 11 5 6 1022.8 1022.8 0.6
27/05:56am 17.9 18.5 16.9 94 0.6 SSW 9 11 5 6 1022.8 - 0.6
27/05:30am 18.4 19.4 17.8 96 0.4 N 9 11 5 6 1022.5 - 0.0
27/05:12am 18.3 19.8 18.0 98 0.2 N 7 9 4 5 1022.4 - 0.0
27/05:00am 18.1 20.1 17.8 98 0.2 N 4 9 2 5 1022.3 - 0.0
27/04:30am 18.0 19.4 17.8 99 0.1 N 7 9 4 5 1021.9 - 0.0
27/04:00am 17.6 20.2 17.4 99 0.1 CALM 0 0 0 0 1021.6 - 0.0
27/03:51am 17.9 20.6 17.7 99 0.1 CALM 0 0 0 0 1021.7 - 0.0
27/03:30am 17.1 19.4 16.8 98 0.2 CALM 0 0 0 0 1021.5 - 0.0
27/03:00am 17.4 19.7 16.8 96 0.4 CALM 0 0 0 0 1021.3 1021.3 0.0
27/02:31am 17.5 19.9 17.0 97 0.3 CALM 0 0 0 0 1021.3 - 0.0
27/02:30am 17.5 19.9 17.0 97 0.3 CALM 0 0 0 0 1021.3 - 0.0
27/02:17am 17.6 20.1 17.3 98 0.2 CALM 0 0 0 0 1021.3 - 0.0
27/02:00am 17.6 20.1 17.3 98 0.2 CALM 0 0 0 0 1021.3 - 0.0
27/01:30am 17.4 19.8 17.1 98 0.2 CALM 0 0 0 0 1021.1 - 0.0
27/01:00am 17.2 19.4 16.6 96 0.4 CALM 0 0 0 0 1021.5 - 0.0
27/12:30am 17.5 19.1 16.9 96 0.4 N 4 7 2 4 1021.4 - 0.0
27/12:00am 17.7 20.1 16.9 95 0.5 CALM 0 0 0 0 1021.5 1021.5 0.0
 
Date/Time
EST
Temp
°C
App
Temp
°C
Dew
Point
Rel
Hum
%
Delta-T
°C
Wind Press
QNH
hPa
Press
MSL
hPa
Rain
since 9 am
mm
Dir
 
Spd
km/h
Gust
km/h
Spd
kts
Gust
kts
26/11:30pm 18.0 20.6 17.4 96 0.4 CALM 0 0 0 0 1021.4 - 0.0
26/11:00pm 18.2 20.8 17.4 95 0.5 CALM 0 0 0 0 1021.7 - 0.0
26/10:39pm 18.1 20.5 17.1 94 0.6 CALM 0 0 0 0 1021.6 - 0.0
26/10:30pm 18.5 21.0 17.3 93 0.7 CALM 0 0 0 0 1021.6 - 0.0
26/10:00pm 18.5 21.0 17.2 92 0.8 CALM 0 6 0 3 1021.6 - 0.0
26/09:56pm 18.4 20.5 17.1 92 0.8 N 2 7 1 4 1021.5 - 0.0
26/09:38pm 18.7 21.1 17.0 90 1.0 CALM 0 0 0 0 1021.2 - 0.0
26/09:30pm 19.2 21.9 17.7 91 0.9 CALM 0 0 0 0 1021.1 - 0.0
26/09:00pm 19.7 21.0 18.4 92 0.8 N 9 13 5 7 1021.0 1021.0 0.0
26/08:30pm 19.1 20.0 17.6 91 0.9 N 9 13 5 7 1020.8 - 0.0
26/08:00pm 19.4 20.5 18.1 92 0.8 N 9 11 5 6 1020.4 - 0.0
26/07:30pm 19.7 20.9 18.2 91 0.9 N 9 15 5 8 1020.0 - 0.0
26/07:00pm 19.9 20.3 18.2 90 1.1 N 13 17 7 9 1019.7 - 0.0
26/06:30pm 20.0 20.5 18.3 90 1.1 N 13 19 7 10 1019.1 - 0.0
26/06:00pm 20.2 20.5 17.8 86 1.5 N 13 19 7 10 1018.8 1018.8 0.0
26/05:30pm 20.7 20.2 17.7 83 1.8 N 17 26 9 14 1018.3 - 0.0
26/05:00pm 21.6 20.5 17.4 77 2.6 N 19 24 10 13 1017.8 - 0.0
26/04:30pm 22.8 22.1 17.3 71 3.4 N 17 24 9 13 1017.4 - 0.0
26/04:00pm 23.9 22.7 17.4 67 4.0 N 20 26 11 14 1017.1 - 0.0
26/03:30pm 24.5 23.2 16.7 61 4.8 N 19 26 10 14 1017.0 - 0.0
26/03:00pm 25.1 23.9 17.0 60 5.0 N 19 22 10 12 1017.0 1017.0 0.0
26/02:30pm 25.6 24.2 17.0 59 5.3 N 20 26 11 14 1017.2 - 0.0
26/02:00pm 26.8 26.1 17.3 56 5.9 N 17 24 9 13 1017.3 - 0.0
26/01:30pm 26.8 25.5 16.7 54 6.3 NNE 19 24 10 13 1017.6 - 0.0
26/01:00pm 27.6 27.9 16.9 52 6.7 NNW 11 19 6 10 1017.9 - 0.0
26/12:30pm 27.6 27.1 15.9 49 7.2 NNW 13 17 7 9 1018.4 - 0.0
26/12:00pm 26.9 26.3 15.6 50 6.9 N 13 20 7 11 1019.1 1019.1 0.0
26/11:30am 26.6 25.2 15.6 50 6.7 NNW 17 22 9 12 1019.7 - 0.0
26/11:00am 25.8 24.2 16.1 55 5.9 NNW 19 24 10 13 1020.3 - 0.0
26/10:30am 25.5 24.0 16.4 57 5.6 NW 19 24 10 13 1021.0 - 0.0
26/10:00am 23.8 21.9 15.3 59 5.1 NNW 19 22 10 12 1021.7 - 0.0
26/09:30am 21.7 22.0 15.1 66 3.9 WNW 7 11 4 6 1022.0 - 0.0
26/09:00am 20.2 20.7 15.6 75 2.7 N 7 9 4 5 1021.9 1021.9 0.2
26/08:30am 18.2 18.6 15.3 83 1.7 NNE 7 9 4 5 1021.7 - 0.2
26/08:00am 16.4 18.4 15.9 97 0.3 CALM 0 0 0 0 1021.8 - 0.2
26/07:35am 14.8 16.3 14.6 99 0.1 CALM 0 0 0 0 1021.7 - 0.2
26/07:30am 14.3 15.6 14.1 99 0.1 CALM 0 0 0 0 1021.7 - 0.2
26/07:00am 12.5 13.2 12.2 98 0.2 CALM 0 0 0 0 1021.7 - 0.2
26/06:30am 11.7 12.1 11.2 97 0.3 CALM 0 0 0 0 1021.7 - 0.2
26/06:00am 12.2 12.8 11.9 98 0.2 CALM 0 0 0 0 1021.6 1021.6 0.2
26/05:30am 12.2 12.8 11.9 98 0.2 CALM 0 0 0 0 1021.1 - 0.2
26/05:00am 12.3 12.9 11.8 97 0.3 CALM 0 0 0 0 1021.1 - 0.2
26/04:30am 12.3 11.7 11.8 97 0.3 NNW 6 7 3 4 1020.8 - 0.2
26/04:00am 12.9 13.7 12.6 98 0.2 CALM 0 0 0 0 1021.0 - 0.2
26/03:30am 12.8 13.5 12.2 96 0.3 CALM 0 0 0 0 1021.2 - 0.2
26/03:00am 13.1 13.9 12.5 96 0.3 CALM 0 0 0 0 1021.1 1021.1 0.2
26/02:30am 13.9 15.0 13.4 97 0.3 CALM 0 0 0 0 1021.4 - 0.2
26/02:00am 13.8 14.7 13.0 95 0.4 CALM 0 0 0 0 1021.6 - 0.2
26/01:30am 14.2 14.6 13.6 96 0.3 NNW 4 6 2 3 1021.6 - 0.2
26/01:00am 14.5 15.6 13.5 94 0.6 CALM 0 0 0 0 1021.7 - 0.2
26/12:50am 14.2 15.1 12.9 92 0.7 CALM 0 0 0 0 1021.6 - 0.2
26/12:41am 15.0 16.3 14.0 94 0.6 CALM 0 0 0 0 1021.7 - 0.2
26/12:30am 15.3 16.8 14.7 96 0.3 CALM 0 0 0 0 1021.6 - 0.2
26/12:12am 15.2 15.4 14.1 93 0.6 NNW 6 6 3 3 1021.6 - 0.2
26/12:00am 15.2 15.2 13.7 91 0.8 NNW 6 9 3 5 1021.7 1021.7 0.2
 
Date/Time
EST
Temp
°C
App
Temp
°C
Dew
Point
Rel
Hum
%
Delta-T
°C
Wind Press
QNH
hPa
Press
MSL
hPa
Rain
since 9 am
mm
Dir
 
Spd
km/h
Gust
km/h
Spd
kts
Gust
kts
25/11:30pm 15.7 15.5 13.7 88 1.1 NNW 7 7 4 4 1021.8 - 0.2
25/11:00pm 17.2 18.8 15.0 87 1.3 CALM 0 0 0 0 1022.3 - 0.2
25/10:30pm 17.0 18.7 15.3 90 1.0 CALM 0 0 0 0 1022.4 - 0.2
25/10:00pm 16.8 18.4 14.8 88 1.2 CALM 0 0 0 0 1022.3 - 0.2
25/09:30pm 17.0 18.6 14.8 87 1.3 CALM 0 0 0 0 1022.1 - 0.2
25/09:00pm 16.5 16.5 14.3 87 1.3 NNW 7 7 4 4 1021.8 1021.8 0.2
25/08:30pm 16.5 17.8 14.2 86 1.3 CALM 0 0 0 0 1021.9 - 0.2

Other Formats:

Comma delimited format used in spreadsheet applications
http://www.bom.gov.au/fwo/IDQ60801/IDQ60801.94567.axf

JavaScript Object Notation format (JSON) in row-major order
http://www.bom.gov.au/fwo/IDQ60801/IDQ60801.94567.json